createdAt,value
2023-01-23T00:00:57.414Z,59.40
2023-01-23T00:03:24.475Z,59.40
2023-01-23T00:06:02.152Z,59.40
2023-01-23T00:08:29.310Z,59.50
2023-01-23T00:10:56.313Z,59.90
2023-01-23T00:13:23.304Z,59.60
2023-01-23T00:15:50.315Z,60.00
2023-01-23T00:18:17.695Z,60.20
2023-01-23T00:20:44.626Z,59.80
2023-01-23T00:23:12.063Z,59.80
2023-01-23T00:25:39.023Z,59.30
2023-01-23T00:28:06.450Z,59.60
2023-01-23T00:30:34.059Z,59.60
2023-01-23T00:33:01.058Z,59.60
2023-01-23T00:35:27.912Z,59.70
2023-01-23T00:37:54.835Z,59.20
2023-01-23T00:40:22.115Z,59.40
2023-01-23T00:42:49.049Z,59.70
2023-01-23T00:45:15.882Z,59.40
2023-01-23T00:47:42.859Z,59.70
2023-01-23T00:50:10.659Z,59.10
2023-01-23T00:52:37.534Z,59.10
2023-01-23T00:55:05.608Z,58.60
2023-01-23T00:57:32.508Z,58.30
2023-01-23T00:59:59.356Z,58.70
2023-01-23T01:02:26.420Z,58.90
2023-01-23T01:04:53.255Z,59.20
2023-01-23T01:07:20.065Z,58.80
2023-01-23T01:09:46.897Z,59.50
2023-01-23T01:12:14.195Z,59.80
2023-01-23T01:14:41.099Z,59.40
2023-01-23T01:17:07.953Z,59.30
2023-01-23T01:19:34.948Z,59.20
2023-01-23T01:22:01.783Z,59.20
2023-01-23T01:24:28.763Z,58.90
2023-01-23T01:26:55.595Z,58.90
2023-01-23T01:29:22.637Z,58.60
2023-01-23T01:31:49.569Z,59.20
2023-01-23T01:34:16.528Z,58.90
2023-01-23T01:36:43.325Z,58.60
2023-01-23T01:39:10.214Z,58.50
2023-01-23T01:41:37.091Z,59.00
2023-01-23T01:44:04.278Z,58.70
2023-01-23T01:46:32.397Z,58.90
2023-01-23T01:49:11.270Z,59.00
2023-01-23T01:51:53.284Z,58.90
2023-01-23T01:54:41.868Z,59.20
2023-01-23T01:57:21.206Z,59.40
2023-01-23T01:59:50.219Z,59.50
2023-01-23T02:02:25.652Z,58.90
2023-01-23T02:04:58.238Z,58.50
2023-01-23T02:07:49.303Z,58.00
2023-01-23T02:10:16.754Z,58.20
2023-01-23T02:12:48.536Z,58.40
2023-01-23T02:15:17.064Z,58.20
2023-01-23T02:17:45.530Z,58.00
2023-01-23T02:20:27.984Z,58.20
2023-01-23T02:23:10.819Z,57.90
2023-01-23T02:25:43.739Z,58.00
2023-01-23T02:28:12.191Z,58.60
2023-01-23T02:30:40.267Z,58.00
2023-01-23T02:33:31.217Z,57.80
2023-01-23T02:35:59.156Z,58.20
2023-01-23T02:38:31.430Z,58.10
2023-01-23T02:41:01.944Z,57.90
2023-01-23T02:43:35.166Z,58.30
2023-01-23T02:46:03.766Z,58.20
2023-01-23T02:48:30.732Z,57.90
2023-01-23T02:50:57.566Z,58.30
2023-01-23T02:53:25.804Z,57.80
2023-01-23T02:55:52.638Z,58.70
2023-01-23T02:58:38.194Z,58.30
2023-01-23T03:01:05.285Z,58.10
2023-01-23T03:03:32.399Z,58.00
2023-01-23T03:06:00.195Z,57.30
2023-01-23T03:08:33.504Z,57.50
2023-01-23T03:11:01.313Z,57.40
2023-01-23T03:13:28.551Z,57.70
2023-01-23T03:15:58.991Z,57.60
2023-01-23T03:18:30.914Z,57.90
2023-01-23T03:21:02.907Z,57.90
2023-01-23T03:23:30.053Z,57.30
2023-01-23T03:25:58.691Z,57.50
2023-01-23T03:28:45.203Z,57.30
2023-01-23T03:31:13.135Z,57.50
2023-01-23T03:33:43.335Z,57.50
2023-01-23T03:36:13.054Z,56.70
2023-01-23T03:38:59.984Z,56.40
2023-01-23T03:41:27.400Z,57.30
2023-01-23T03:43:54.252Z,57.00
2023-01-23T03:46:21.059Z,57.20
2023-01-23T03:48:47.967Z,57.80
2023-01-23T03:51:14.876Z,57.60
2023-01-23T03:53:41.755Z,57.80
2023-01-23T03:56:08.629Z,57.20
2023-01-23T03:58:35.503Z,57.40
2023-01-23T04:01:06.727Z,57.00
2023-01-23T04:03:33.654Z,57.10
2023-01-23T04:06:00.579Z,57.70
2023-01-23T04:08:28.605Z,58.10
2023-01-23T04:11:03.162Z,57.90
2023-01-23T04:13:30.249Z,57.60
2023-01-23T04:15:57.085Z,57.90
2023-01-23T04:18:24.084Z,57.80
2023-01-23T04:20:51.080Z,58.00
2023-01-23T04:23:18.273Z,57.50
2023-01-23T04:25:45.158Z,57.50
2023-01-23T04:28:12.293Z,57.60
2023-01-23T04:30:39.430Z,57.60
2023-01-23T04:33:06.356Z,57.80
2023-01-23T04:35:33.680Z,57.60
2023-01-23T04:38:00.703Z,57.70
2023-01-23T04:40:27.783Z,58.30
2023-01-23T04:42:55.334Z,58.30
2023-01-23T04:45:22.351Z,58.10
2023-01-23T04:47:49.207Z,57.90
2023-01-23T04:50:17.440Z,58.90
2023-01-23T04:52:44.491Z,58.50
2023-01-23T04:55:11.711Z,57.70
2023-01-23T04:57:38.687Z,57.70
2023-01-23T05:00:06.253Z,57.40
2023-01-23T05:02:33.153Z,57.30
2023-01-23T05:05:00.059Z,57.30
2023-01-23T05:07:27.059Z,57.10
2023-01-23T05:09:53.922Z,56.70
2023-01-23T05:12:20.767Z,56.60
2023-01-23T05:14:47.604Z,56.60
2023-01-23T05:17:14.553Z,56.50
2023-01-23T05:19:41.376Z,56.60
2023-01-23T05:22:08.284Z,56.80
2023-01-23T05:24:35.179Z,56.80
2023-01-23T05:27:01.990Z,57.00
2023-01-23T05:29:28.786Z,56.70
2023-01-23T05:31:55.698Z,56.70
2023-01-23T05:34:22.505Z,56.90
2023-01-23T05:36:49.399Z,56.70
2023-01-23T05:39:16.459Z,56.90
2023-01-23T05:41:43.419Z,56.70
2023-01-23T05:44:10.185Z,56.30
2023-01-23T05:46:37.088Z,56.90
2023-01-23T05:49:03.934Z,57.00
2023-01-23T05:51:34.058Z,57.00
2023-01-23T05:54:02.226Z,57.20
2023-01-23T05:56:29.339Z,57.00
2023-01-23T05:58:56.469Z,57.30
2023-01-23T06:01:25.460Z,57.30
2023-01-23T06:03:52.287Z,57.40
2023-01-23T06:06:19.161Z,57.20
2023-01-23T06:08:46.201Z,57.90
2023-01-23T06:11:12.939Z,57.80
2023-01-23T06:13:39.843Z,57.60
2023-01-23T06:16:09.101Z,57.30
2023-01-23T06:18:37.487Z,57.20
2023-01-23T06:21:05.318Z,56.90
2023-01-23T06:23:32.211Z,57.30
2023-01-23T06:26:01.280Z,57.10
2023-01-23T06:28:28.314Z,57.60
2023-01-23T06:30:55.785Z,57.30
2023-01-23T06:33:22.763Z,57.60
2023-01-23T06:35:49.809Z,57.90
2023-01-23T06:38:17.933Z,58.10
2023-01-23T06:40:45.177Z,57.80
2023-01-23T06:43:12.100Z,58.20
2023-01-23T06:45:39.258Z,58.30
2023-01-23T06:48:06.587Z,58.40
2023-01-23T06:50:33.517Z,58.50
2023-01-23T06:53:00.524Z,58.90
2023-01-23T06:55:27.331Z,58.70
2023-01-23T06:57:54.138Z,58.90
2023-01-23T07:00:21.638Z,58.60
2023-01-23T07:02:48.834Z,58.90
2023-01-23T07:05:15.960Z,58.90
2023-01-23T07:07:42.748Z,58.70
2023-01-23T07:10:10.476Z,58.70
2023-01-23T07:12:37.297Z,59.00
2023-01-23T07:15:04.517Z,59.00
2023-01-23T07:17:31.350Z,59.10
2023-01-23T07:19:58.149Z,58.80
2023-01-23T07:22:24.955Z,58.80
2023-01-23T07:24:51.844Z,58.60
2023-01-23T07:27:18.717Z,58.20
2023-01-23T07:29:45.556Z,58.60
2023-01-23T07:32:12.429Z,58.60
2023-01-23T07:34:39.361Z,58.50
2023-01-23T07:37:06.637Z,58.70
2023-01-23T07:39:33.568Z,58.80
2023-01-23T07:42:00.948Z,57.60
2023-01-23T07:44:27.993Z,58.20
2023-01-23T07:46:54.875Z,57.70
2023-01-23T07:49:21.713Z,57.90
2023-01-23T07:51:48.553Z,58.10
2023-01-23T07:54:15.439Z,58.10
2023-01-23T07:56:42.270Z,58.30
2023-01-23T07:59:09.146Z,58.30
2023-01-23T08:01:36.004Z,58.70
2023-01-23T08:04:02.997Z,58.10
2023-01-23T08:06:29.926Z,58.60
2023-01-23T08:08:56.724Z,58.20
2023-01-23T08:11:26.553Z,58.50
2023-01-23T08:13:53.399Z,58.70
2023-01-23T08:16:20.329Z,58.90
2023-01-23T08:18:47.213Z,59.00
2023-01-23T08:21:14.092Z,58.80
2023-01-23T08:23:41.240Z,58.20
2023-01-23T08:26:09.707Z,58.60
2023-01-23T08:28:36.736Z,58.70
2023-01-23T08:31:07.298Z,58.70
2023-01-23T08:33:35.540Z,58.80
2023-01-23T08:36:02.521Z,58.60
2023-01-23T08:38:31.193Z,58.40
2023-01-23T08:41:02.524Z,58.20
2023-01-23T08:43:30.073Z,58.20
2023-01-23T08:45:59.609Z,58.00
2023-01-23T08:48:27.846Z,58.40
2023-01-23T08:51:06.078Z,57.90
2023-01-23T08:53:34.446Z,58.40
2023-01-23T08:56:07.132Z,58.40
2023-01-23T08:58:34.775Z,58.60
2023-01-23T09:01:01.735Z,58.60
2023-01-23T09:03:28.683Z,57.90
2023-01-23T09:05:55.578Z,58.20
2023-01-23T09:08:22.421Z,58.20
2023-01-23T09:10:50.403Z,58.20
2023-01-23T09:13:19.731Z,58.40
2023-01-23T09:15:46.841Z,58.60
2023-01-23T09:18:13.734Z,58.60
2023-01-23T09:20:40.571Z,58.50
2023-01-23T09:23:07.436Z,58.60
2023-01-23T09:25:34.277Z,58.90
2023-01-23T09:28:01.144Z,58.60
2023-01-23T09:30:28.218Z,58.60
2023-01-23T09:32:55.100Z,58.80
2023-01-23T09:35:23.408Z,58.30
2023-01-23T09:37:59.829Z,57.50
2023-01-23T09:40:38.190Z,57.90
2023-01-23T09:43:32.144Z,57.50
2023-01-23T09:46:14.309Z,57.40
2023-01-23T09:48:58.193Z,57.30
2023-01-23T09:51:43.007Z,57.30
2023-01-23T09:54:44.547Z,57.20
2023-01-23T09:57:24.895Z,56.70
2023-01-23T10:00:17.901Z,56.80
2023-01-23T10:02:45.730Z,56.70
2023-01-23T10:05:18.427Z,56.50
2023-01-23T10:07:51.097Z,56.20
2023-01-23T10:10:22.321Z,56.40
2023-01-23T10:13:09.342Z,56.50
2023-01-23T10:16:13.113Z,56.60
2023-01-23T10:19:11.837Z,56.70
2023-01-23T10:22:01.783Z,56.80
2023-01-23T10:24:39.841Z,57.00
2023-01-23T10:27:36.209Z,57.30
2023-01-23T10:30:14.554Z,57.30
2023-01-23T10:33:02.816Z,57.10
2023-01-23T10:35:55.560Z,57.30
2023-01-23T10:38:48.450Z,57.10
2023-01-23T10:41:23.554Z,56.90
2023-01-23T10:43:52.410Z,56.60
2023-01-23T10:46:29.404Z,56.60
2023-01-23T10:48:56.706Z,56.40
2023-01-23T10:51:35.399Z,56.90
2023-01-23T10:54:30.302Z,57.00
2023-01-23T10:57:21.717Z,57.00
2023-01-23T11:00:01.534Z,56.80
2023-01-23T11:02:31.750Z,57.00
2023-01-23T11:04:59.488Z,56.80
2023-01-23T11:07:37.516Z,57.20
2023-01-23T11:10:10.404Z,59.60
2023-01-23T11:12:51.605Z,62.10
2023-01-23T11:15:32.315Z,64.10
2023-01-23T11:18:01.463Z,65.70
2023-01-23T11:20:37.765Z,66.80
2023-01-23T11:23:13.153Z,67.90
2023-01-23T11:25:41.406Z,69.80
2023-01-23T11:28:32.157Z,70.90
2023-01-23T11:31:19.294Z,71.40
2023-01-23T11:34:11.543Z,72.00
2023-01-23T11:37:10.679Z,71.90
2023-01-23T11:39:49.859Z,72.10
2023-01-23T11:42:18.102Z,72.90
2023-01-23T11:44:46.947Z,73.20
2023-01-23T11:47:40.457Z,72.70
2023-01-23T11:50:25.709Z,72.80
2023-01-23T11:53:17.597Z,73.10
2023-01-23T11:56:02.872Z,73.40
2023-01-23T11:58:51.397Z,74.00
2023-01-23T12:01:36.584Z,73.70
2023-01-23T12:04:06.488Z,74.30
2023-01-23T12:06:51.653Z,74.60
2023-01-23T12:09:21.374Z,74.10
2023-01-23T12:12:09.570Z,74.20
2023-01-23T12:14:45.681Z,74.30
2023-01-23T12:17:15.575Z,74.00
2023-01-23T12:20:04.584Z,74.50
2023-01-23T12:22:40.145Z,74.60
2023-01-23T12:25:27.189Z,74.80
2023-01-23T12:28:02.602Z,74.40
2023-01-23T12:30:50.961Z,74.40
2023-01-23T12:33:17.791Z,74.00
2023-01-23T12:35:44.573Z,74.10
2023-01-23T12:38:27.566Z,74.10
2023-01-23T12:41:12.058Z,73.60
2023-01-23T12:44:11.225Z,73.40
2023-01-23T12:46:50.978Z,73.60
2023-01-23T12:49:33.808Z,73.40
2023-01-23T12:52:16.140Z,73.60
2023-01-23T12:54:48.385Z,73.10
2023-01-23T12:57:52.280Z,73.80
2023-01-23T13:00:31.611Z,73.30
2023-01-23T13:03:25.949Z,73.60
2023-01-23T13:06:05.687Z,73.50
2023-01-23T13:09:05.348Z,73.50
2023-01-23T13:12:04.408Z,73.60
2023-01-23T13:14:39.575Z,73.40
2023-01-23T13:17:37.890Z,73.90
2023-01-23T13:20:41.751Z,73.40
2023-01-23T13:23:33.104Z,73.60
2023-01-23T13:26:29.214Z,73.40
2023-01-23T13:29:02.486Z,73.40
2023-01-23T13:31:46.771Z,73.20
2023-01-23T13:34:17.188Z,73.50
2023-01-23T13:36:44.597Z,73.70
2023-01-23T13:39:17.921Z,73.50
2023-01-23T13:41:47.790Z,73.30
2023-01-23T13:44:18.051Z,73.60
2023-01-23T14:22:31.719Z,75.50
2023-01-23T14:24:59.292Z,75.10
2023-01-23T14:27:36.770Z,74.90
2023-01-23T14:30:20.350Z,74.50
2023-01-23T14:32:47.227Z,74.20
2023-01-23T14:35:42.970Z,73.60
2023-01-23T14:38:14.361Z,73.40
2023-01-23T14:40:50.718Z,73.30
2023-01-23T14:43:26.990Z,73.80
2023-01-23T14:46:07.871Z,73.60
2023-01-23T14:48:41.108Z,73.30
2023-01-23T14:51:20.234Z,73.40
2023-01-23T14:53:59.115Z,72.80
2023-01-23T14:56:33.933Z,72.90
2023-01-23T14:59:20.476Z,73.00
2023-01-23T15:01:57.920Z,72.60
2023-01-23T15:04:28.347Z,72.60
2023-01-23T15:07:00.911Z,72.70
2023-01-23T15:09:41.451Z,72.40
2023-01-23T15:12:16.741Z,72.80
2023-01-23T15:14:44.568Z,72.50
2023-01-23T15:17:19.640Z,72.40
2023-01-23T15:19:55.278Z,72.10
2023-01-23T15:22:27.991Z,72.50
2023-01-23T15:24:55.822Z,72.10
2023-01-23T15:27:24.774Z,71.90
2023-01-23T15:29:52.588Z,72.20
2023-01-23T15:32:26.228Z,72.30
2023-01-23T15:34:55.708Z,71.90
2023-01-23T15:37:26.626Z,71.60
2023-01-23T15:40:02.607Z,71.30
2023-01-23T15:42:32.388Z,71.80
2023-01-23T15:45:01.593Z,72.20
2023-01-23T15:47:32.319Z,71.90
2023-01-23T15:50:02.987Z,71.20
2023-01-23T15:53:02.188Z,71.30
2023-01-23T15:55:29.496Z,71.30
2023-01-23T15:57:56.737Z,71.30
2023-01-23T16:00:26.571Z,71.70
2023-01-23T16:02:57.097Z,71.90
2023-01-23T16:05:30.164Z,71.70
2023-01-23T16:08:01.151Z,71.70
2023-01-23T16:10:35.330Z,71.80
2023-01-23T16:13:02.223Z,71.70
2023-01-23T16:15:32.898Z,71.50
2023-01-23T16:18:00.810Z,71.80
2023-01-23T16:20:31.252Z,72.00
2023-01-23T16:23:14.281Z,71.50
2023-01-23T16:25:46.287Z,71.40
2023-01-23T16:28:21.860Z,71.50
2023-01-23T16:30:49.791Z,71.50
2023-01-23T16:33:16.828Z,71.60
2023-01-23T16:35:44.448Z,71.30
2023-01-23T16:38:24.196Z,71.60
2023-01-23T16:40:53.471Z,71.80
2023-01-23T16:43:21.551Z,71.60
2023-01-23T16:45:48.509Z,71.30
2023-01-23T16:48:26.089Z,71.30
2023-01-23T16:51:08.348Z,71.10
2023-01-23T16:53:40.386Z,71.10
2023-01-23T16:56:08.166Z,71.30
2023-01-23T16:58:39.739Z,71.30
2023-01-23T17:01:15.927Z,71.00
2023-01-23T17:03:44.316Z,70.80
2023-01-23T17:06:16.182Z,70.60
2023-01-23T17:08:43.333Z,70.60
2023-01-23T17:11:18.783Z,70.80
2023-01-23T17:13:45.874Z,70.60
2023-01-23T17:16:25.715Z,71.10
2023-01-23T17:18:54.454Z,71.30
2023-01-23T17:21:23.864Z,71.40
2023-01-23T17:23:50.846Z,71.20
2023-01-23T17:26:19.207Z,71.00
2023-01-23T17:28:46.088Z,70.50
2023-01-23T17:31:39.450Z,70.20
2023-01-23T17:34:07.555Z,70.50
2023-01-23T17:36:35.135Z,70.70
2023-01-23T17:39:02.459Z,70.50
2023-01-23T17:41:30.992Z,70.70
2023-01-23T17:43:58.907Z,70.20
2023-01-23T17:46:27.935Z,69.90
2023-01-23T17:48:56.455Z,69.70
2023-01-23T17:51:25.252Z,69.60
2023-01-23T17:53:52.879Z,70.40
2023-01-23T17:56:19.727Z,70.30
2023-01-23T17:58:46.657Z,70.50
2023-01-23T18:01:24.159Z,70.60
2023-01-23T18:03:51.957Z,70.60
2023-01-23T18:06:19.471Z,71.30
2023-01-23T18:08:46.455Z,71.30
2023-01-23T18:11:24.341Z,71.20
2023-01-23T18:14:03.120Z,71.00
2023-01-23T18:16:45.643Z,70.90
2023-01-23T18:19:23.456Z,70.60
2023-01-23T18:21:53.195Z,70.60
2023-01-23T18:24:30.360Z,70.50
2023-01-23T18:26:58.692Z,70.50
2023-01-23T18:29:44.397Z,70.40
2023-01-23T18:32:32.398Z,71.00
2023-01-23T18:35:17.235Z,70.80
2023-01-23T18:38:06.143Z,70.70
2023-01-23T18:40:47.749Z,71.20
2023-01-23T18:43:32.975Z,70.90
2023-01-23T18:46:00.061Z,70.90
2023-01-23T18:48:27.242Z,71.20
2023-01-23T18:51:27.765Z,71.10
2023-01-23T18:54:33.169Z,71.30
2023-01-23T18:57:36.737Z,71.30
2023-01-23T19:00:31.140Z,71.60
2023-01-23T19:03:28.876Z,71.70
2023-01-23T19:05:56.120Z,71.80
2023-01-23T19:08:30.952Z,72.20
2023-01-23T19:11:06.842Z,72.20
2023-01-23T19:13:47.897Z,71.90
2023-01-23T19:16:30.654Z,71.90
2023-01-23T19:19:17.756Z,71.60
2023-01-23T19:21:47.292Z,71.90
2023-01-23T19:24:17.985Z,71.90
2023-01-23T19:26:45.347Z,71.90
2023-01-23T19:29:21.942Z,71.90
2023-01-23T19:32:06.546Z,72.10
2023-01-23T19:34:36.505Z,71.80
2023-01-23T19:37:04.172Z,71.70
2023-01-23T19:39:33.441Z,72.20
2023-01-23T19:42:00.800Z,72.20
2023-01-23T19:44:30.059Z,72.20
2023-01-23T19:46:57.109Z,72.30
2023-01-23T19:49:25.219Z,72.20
2023-01-23T19:51:52.245Z,71.80
2023-01-23T19:54:19.215Z,71.70
2023-01-23T19:56:46.139Z,71.90
2023-01-23T19:59:12.976Z,72.00
2023-01-23T20:01:49.643Z,71.80
2023-01-23T20:04:20.929Z,71.80
2023-01-23T20:06:49.182Z,71.60
2023-01-23T20:09:16.175Z,72.00
2023-01-23T20:11:44.818Z,71.80
2023-01-23T20:14:12.801Z,71.80
2023-01-23T20:16:42.883Z,71.60
2023-01-23T20:19:17.013Z,71.70
2023-01-23T20:21:44.230Z,71.60
2023-01-23T20:24:12.099Z,71.60
2023-01-23T20:26:40.026Z,71.90
2023-01-23T20:29:08.667Z,72.00
2023-01-23T20:31:35.881Z,72.30
2023-01-23T20:34:04.360Z,73.00
2023-01-23T20:36:31.186Z,72.90
2023-01-23T20:38:58.110Z,73.00
2023-01-23T20:41:25.070Z,73.10
2023-01-23T20:43:51.886Z,72.60
2023-01-23T20:46:20.633Z,72.40
2023-01-23T20:48:47.920Z,72.70
2023-01-23T20:51:17.925Z,72.90
2023-01-23T20:53:45.385Z,72.70
2023-01-23T20:56:19.496Z,73.20
2023-01-23T20:59:08.014Z,73.20
2023-01-23T21:01:56.011Z,72.90
2023-01-23T21:04:25.230Z,73.10
2023-01-23T21:06:52.543Z,73.40
2023-01-23T21:09:19.498Z,73.70
2023-01-23T21:11:46.765Z,73.50
2023-01-23T21:14:14.536Z,73.70
2023-01-23T21:16:41.542Z,74.00
2023-01-23T21:19:09.223Z,73.60
2023-01-23T21:21:36.716Z,73.90
2023-01-23T21:24:04.015Z,74.10
2023-01-23T21:26:30.855Z,74.10
2023-01-23T21:28:58.693Z,73.70
2023-01-23T21:31:34.866Z,74.10
2023-01-23T21:34:11.043Z,74.30
2023-01-23T21:36:39.344Z,74.20
2023-01-23T21:39:08.637Z,74.00
2023-01-23T21:41:37.112Z,74.00
2023-01-23T21:44:04.165Z,74.20
2023-01-23T21:46:31.227Z,74.10
2023-01-23T21:48:58.213Z,74.00
2023-01-23T21:51:28.400Z,74.10
2023-01-23T21:53:55.427Z,73.90
2023-01-23T21:56:23.962Z,74.10
2023-01-23T21:58:51.231Z,74.20
2023-01-23T22:01:33.553Z,73.80
2023-01-23T22:04:15.026Z,74.40
2023-01-23T22:06:45.067Z,74.10
2023-01-23T22:09:17.748Z,74.00
2023-01-23T22:11:45.451Z,74.40
2023-01-23T22:14:12.447Z,74.30
2023-01-23T22:16:48.454Z,74.00
2023-01-23T22:19:17.771Z,74.20
2023-01-23T22:21:46.674Z,74.40
2023-01-23T22:24:14.305Z,74.20
2023-01-23T22:26:41.187Z,74.20
2023-01-23T22:29:08.829Z,74.30
2023-01-23T22:31:35.882Z,74.50
2023-01-23T22:34:02.863Z,74.50
2023-01-23T22:36:29.722Z,74.90
2023-01-23T22:38:56.767Z,74.60
2023-01-23T22:41:24.238Z,74.80
2023-01-23T22:43:55.968Z,74.80
2023-01-23T22:46:23.727Z,74.80
2023-01-23T22:48:51.530Z,75.10
2023-01-23T22:51:24.762Z,74.70
2023-01-23T22:53:53.027Z,74.70
2023-01-23T22:56:20.716Z,75.00
2023-01-23T22:58:49.588Z,74.80
2023-01-23T23:01:17.585Z,75.50
2023-01-23T23:03:45.327Z,75.30
2023-01-23T23:06:15.052Z,74.70
2023-01-23T23:08:43.002Z,74.90
2023-01-23T23:11:17.015Z,75.00
2023-01-23T23:13:44.096Z,75.30
2023-01-23T23:16:19.991Z,75.10
2023-01-23T23:18:49.608Z,75.20
2023-01-23T23:21:20.188Z,75.30
2023-01-23T23:23:47.735Z,75.40
2023-01-23T23:26:15.431Z,75.80
2023-01-23T23:28:42.761Z,75.50
2023-01-23T23:31:10.395Z,75.20
2023-01-23T23:33:37.659Z,75.40
2023-01-23T23:36:05.244Z,75.40
2023-01-23T23:38:32.238Z,75.70
2023-01-23T23:41:04.922Z,75.30
2023-01-23T23:43:32.384Z,75.40
2023-01-23T23:46:02.487Z,75.30
2023-01-23T23:48:30.502Z,75.30
2023-01-23T23:51:00.261Z,75.70
2023-01-23T23:53:27.480Z,75.80
2023-01-23T23:55:54.397Z,75.60
2023-01-23T23:58:21.353Z,75.80
